Time;durP1;ratioP1;P1;durP2;ratioP2;P2;SDS_P1;SDS_P2;PMS_P1;PMS_P2;Temp;Humidity;BMP_temperature;BMP_pressure;BME280_temperature;BME280_humidity;BME280_pressure;Samples;Min_cycle;Max_cycle;Signal;HPM_P1;HPM_P2
2022/12/12 00:00:09;;;;;;;32.43;22.10;;;;;;;;;;5094842;28;20458;-79
2022/12/12 00:02:37;;;;;;;29.80;20.20;;;;;;;;;;5093827;28;20436;-77
2022/12/12 00:05:05;;;;;;;34.60;21.20;;;;;;;;;;5094471;28;20485;-77
2022/12/12 00:07:32;;;;;;;26.30;20.07;;;;;;;;;;5094552;28;20439;-77
2022/12/12 00:10:00;;;;;;;24.63;17.37;;;;;;;;;;5094688;28;20439;-78
2022/12/12 00:12:28;;;;;;;27.57;18.57;;;;;;;;;;5094609;28;20454;-77
2022/12/12 00:14:55;;;;;;;27.27;19.57;;;;;;;;;;5091335;28;20448;-77
2022/12/12 00:17:22;;;;;;;29.53;19.87;;;;;;;;;;5091961;28;20451;-77
2022/12/12 00:19:49;;;;;;;28.87;18.97;;;;;;;;;;5094127;28;20443;-76
2022/12/12 00:22:16;;;;;;;25.17;18.57;;;;;;;;;;5093961;28;20443;-78
2022/12/12 00:24:43;;;;;;;25.80;16.90;;;;;;;;;;5093646;28;20436;-77
2022/12/12 00:27:11;;;;;;;25.60;17.87;;;;;;;;;;5093898;28;20463;-77
2022/12/12 00:29:38;;;;;;;26.17;18.63;;;;;;;;;;5094046;28;20439;-78
2022/12/12 00:32:06;;;;;;;27.00;18.70;;;;;;;;;;5095146;28;20459;-77
2022/12/12 00:34:33;;;;;;;25.43;18.90;;;;;;;;;;5096169;28;20472;-78
2022/12/12 00:37:00;;;;;;;31.20;19.00;;;;;;;;;;5095119;28;20467;-77
2022/12/12 00:39:27;;;;;;;29.07;19.30;;;;;;;;;;5093984;28;20436;-77
2022/12/12 00:41:54;;;;;;;26.10;19.50;;;;;;;;;;5093697;28;20435;-77
2022/12/12 00:44:22;;;;;;;25.43;17.43;;;;;;;;;;5093154;28;20432;-77
2022/12/12 00:46:49;;;;;;;24.60;18.40;;;;;;;;;;5093673;28;20463;-78
2022/12/12 00:49:16;;;;;;;26.50;18.40;;;;;;;;;;5095422;28;20439;-77
2022/12/12 00:51:44;;;;;;;27.07;17.90;;;;;;;;;;5095574;28;20443;-78
2022/12/12 00:54:11;;;;;;;25.27;17.10;;;;;;;;;;5094666;28;20871;-77
2022/12/12 00:56:40;;;;;;;23.67;16.93;;;;;;;;;;5095171;28;20460;-77
2022/12/12 00:59:07;;;;;;;25.73;16.20;;;;;;;;;;5095039;28;20463;-77
2022/12/12 01:01:36;;;;;;;25.97;18.20;;;;;;;;;;5095004;28;20450;-77
2022/12/12 01:04:03;;;;;;;21.30;15.50;;;;;;;;;;5093885;28;20451;-77
2022/12/12 01:06:31;;;;;;;21.40;15.07;;;;;;;;;;5097629;28;21037;-76
2022/12/12 01:08:58;;;;;;;24.70;17.43;;;;;;;;;;5099148;28;20439;-77
2022/12/12 01:11:25;;;;;;;22.33;16.20;;;;;;;;;;5098759;28;20629;-77
2022/12/12 01:13:53;;;;;;;21.70;15.60;;;;;;;;;;5094921;28;20483;-76
2022/12/12 01:16:20;;;;;;;22.47;16.20;;;;;;;;;;5078578;28;20457;-77
2022/12/12 01:18:49;;;;;;;21.97;15.10;;;;;;;;;;5100086;28;20458;-76
2022/12/12 01:21:18;;;;;;;20.50;14.20;;;;;;;;;;5099355;28;20443;-76
2022/12/12 01:23:45;;;;;;;25.10;15.87;;;;;;;;;;5097518;28;20801;-76
2022/12/12 01:26:13;;;;;;;19.80;15.13;;;;;;;;;;5094884;28;20830;-77
2022/12/12 01:28:41;;;;;;;22.83;17.40;;;;;;;;;;5094965;28;20440;-77
2022/12/12 01:31:08;;;;;;;23.17;16.53;;;;;;;;;;5095542;28;20545;-76
2022/12/12 01:33:36;;;;;;;25.10;16.13;;;;;;;;;;5094001;28;20820;-77
2022/12/12 01:36:04;;;;;;;23.23;16.53;;;;;;;;;;5093434;28;20475;-77
2022/12/12 01:38:31;;;;;;;21.23;14.00;;;;;;;;;;5093888;28;20439;-76
2022/12/12 01:40:59;;;;;;;19.07;13.70;;;;;;;;;;5094590;28;20448;-76
2022/12/12 01:43:26;;;;;;;18.60;13.80;;;;;;;;;;5093648;28;20518;-77
2022/12/12 01:46:11;;;;;;;21.73;15.03;;;;;;;;;;5093862;28;20452;-77
2022/12/12 01:48:40;;;;;;;20.60;14.60;;;;;;;;;;5092925;28;20778;-77
2022/12/12 01:51:10;;;;;;;23.10;16.37;;;;;;;;;;5092706;28;20447;-76
2022/12/12 01:53:38;;;;;;;25.40;15.07;;;;;;;;;;5091543;28;20456;-77
2022/12/12 01:56:08;;;;;;;19.90;14.13;;;;;;;;;;5091840;28;20455;-77
2022/12/12 01:58:35;;;;;;;21.20;15.90;;;;;;;;;;5092301;28;20434;-76
2022/12/12 02:01:02;;;;;;;18.40;14.07;;;;;;;;;;5092470;28;20439;-76
2022/12/12 02:03:29;;;;;;;19.17;13.53;;;;;;;;;;5091793;28;21116;-76
2022/12/12 02:05:58;;;;;;;17.33;14.27;;;;;;;;;;5091626;28;20487;-76
2022/12/12 02:08:26;;;;;;;19.90;14.70;;;;;;;;;;5092093;28;20432;-77
2022/12/12 02:10:53;;;;;;;20.30;14.80;;;;;;;;;;5091851;28;20439;-76
2022/12/12 02:13:23;;;;;;;19.20;14.63;;;;;;;;;;5090927;28;20475;-76
2022/12/12 02:15:57;;;;;;;21.13;15.27;;;;;;;;;;5091722;28;20461;-78
2022/12/12 02:18:28;;;;;;;18.40;14.10;;;;;;;;;;5091696;28;20424;-77
2022/12/12 02:21:02;;;;;;;21.77;14.57;;;;;;;;;;5091640;28;20439;-76
2022/12/12 02:23:45;;;;;;;24.03;15.77;;;;;;;;;;5091078;28;20922;-76
2022/12/12 02:26:31;;;;;;;20.80;15.67;;;;;;;;;;5091888;28;20463;-76
2022/12/12 02:29:14;;;;;;;26.27;17.40;;;;;;;;;;5091573;28;20542;-76
2022/12/12 02:31:47;;;;;;;25.67;16.13;;;;;;;;;;5093953;28;20801;-77
2022/12/12 02:34:18;;;;;;;22.97;15.47;;;;;;;;;;5091090;28;20468;-76
2022/12/12 02:36:48;;;;;;;21.77;15.67;;;;;;;;;;5090273;28;20471;-77
2022/12/12 02:39:19;;;;;;;20.17;14.37;;;;;;;;;;5079268;28;20463;-77
2022/12/12 02:41:51;;;;;;;20.33;15.20;;;;;;;;;;5091427;28;20435;-77
2022/12/12 02:44:20;;;;;;;18.73;14.13;;;;;;;;;;5090603;28;20423;-77
2022/12/12 02:46:53;;;;;;;21.57;15.27;;;;;;;;;;5090919;28;20788;-76
2022/12/12 02:49:22;;;;;;;24.90;17.03;;;;;;;;;;5091382;28;20428;-79
2022/12/12 02:51:51;;;;;;;22.77;17.60;;;;;;;;;;5090689;28;20447;-76
2022/12/12 02:54:20;;;;;;;21.60;15.60;;;;;;;;;;5090601;28;20480;-76
2022/12/12 02:56:49;;;;;;;23.93;16.50;;;;;;;;;;5091266;28;20463;-77
2022/12/12 02:59:20;;;;;;;23.40;16.23;;;;;;;;;;5091309;28;20452;-77
2022/12/12 03:01:55;;;;;;;25.10;16.17;;;;;;;;;;5091651;28;20455;-76
2022/12/12 03:10:04;;;;;;;23.93;16.80;;;;;;;;;;5090914;28;20403;-77
2022/12/12 03:12:35;;;;;;;24.90;16.47;;;;;;;;;;5095248;28;20443;-76
2022/12/12 03:15:05;;;;;;;23.87;15.70;;;;;;;;;;5110739;28;20616;-77
2022/12/12 03:17:36;;;;;;;22.67;16.07;;;;;;;;;;5110151;28;20428;-76
2022/12/12 03:20:07;;;;;;;22.20;15.83;;;;;;;;;;5110992;28;20431;-77
2022/12/12 03:22:38;;;;;;;22.97;16.90;;;;;;;;;;5110171;28;20430;-76
2022/12/12 03:25:08;;;;;;;23.40;16.33;;;;;;;;;;5111108;28;20423;-76
2022/12/12 03:27:38;;;;;;;24.83;17.67;;;;;;;;;;5113018;28;20447;-76
2022/12/12 03:30:06;;;;;;;26.03;15.63;;;;;;;;;;5115614;28;20443;-77
2022/12/12 03:32:37;;;;;;;24.90;16.77;;;;;;;;;;5116469;28;20442;-76
2022/12/12 03:35:08;;;;;;;25.07;16.80;;;;;;;;;;5112694;28;20461;-76
2022/12/12 03:37:37;;;;;;;22.20;17.23;;;;;;;;;;5112506;28;20522;-77
2022/12/12 03:40:06;;;;;;;22.37;16.20;;;;;;;;;;5111645;28;20446;-76
2022/12/12 03:42:36;;;;;;;24.80;16.30;;;;;;;;;;5111104;28;20443;-78
2022/12/12 03:45:05;;;;;;;24.40;17.50;;;;;;;;;;5111059;28;20439;-77
2022/12/12 03:47:36;;;;;;;23.70;17.10;;;;;;;;;;5110862;28;20454;-77
2022/12/12 03:50:06;;;;;;;23.63;15.30;;;;;;;;;;5112540;28;20455;-77
2022/12/12 03:52:36;;;;;;;22.93;16.43;;;;;;;;;;5110467;28;20438;-76
2022/12/12 03:55:05;;;;;;;20.13;15.60;;;;;;;;;;5110858;28;20474;-77
2022/12/12 03:57:33;;;;;;;24.03;16.90;;;;;;;;;;5110956;28;20450;-76
2022/12/12 04:00:02;;;;;;;24.50;16.90;;;;;;;;;;5110636;28;20450;-76
2022/12/12 04:02:32;;;;;;;23.30;16.30;;;;;;;;;;5110732;28;20507;-76
2022/12/12 04:05:01;;;;;;;29.90;18.80;;;;;;;;;;5111020;28;20435;-78
2022/12/12 04:07:32;;;;;;;27.60;18.97;;;;;;;;;;5111597;28;20439;-76
2022/12/12 04:13:02;;;;;;;26.00;18.20;;;;;;;;;;5110488;28;20391;-77
2022/12/12 04:15:59;;;;;;;30.30;18.90;;;;;;;;;;5110541;28;20478;-75
2022/12/12 04:18:30;;;;;;;26.93;17.60;;;;;;;;;;5012560;28;20443;-76
2022/12/12 04:23:51;;;;;;;26.70;19.20;;;;;;;;;;5114325;28;20954;-76
2022/12/12 04:26:39;;;;;;;32.87;20.43;;;;;;;;;;5111432;28;20455;-77
2022/12/12 04:29:10;;;;;;;26.47;19.30;;;;;;;;;;5110955;28;20439;-76
2022/12/12 04:31:40;;;;;;;29.10;20.97;;;;;;;;;;5111903;28;20434;-77
2022/12/12 04:34:11;;;;;;;29.30;20.50;;;;;;;;;;5111321;28;20501;-75
2022/12/12 04:36:38;;;;;;;26.97;19.43;;;;;;;;;;5111650;28;20478;-76
2022/12/12 04:39:07;;;;;;;30.40;20.00;;;;;;;;;;5111930;28;20445;-76
2022/12/12 04:41:35;;;;;;;29.47;19.40;;;;;;;;;;5111891;28;20450;-76
2022/12/12 04:44:03;;;;;;;34.30;21.40;;;;;;;;;;5111136;28;20446;-76
2022/12/12 04:46:32;;;;;;;29.87;21.20;;;;;;;;;;5112424;28;20466;-78
2022/12/12 04:49:02;;;;;;;33.20;20.70;;;;;;;;;;5111864;28;20441;-77
2022/12/12 04:51:31;;;;;;;30.87;21.47;;;;;;;;;;5111752;28;20434;-76
2022/12/12 04:54:00;;;;;;;33.80;20.73;;;;;;;;;;5111227;28;20595;-75
2022/12/12 04:56:30;;;;;;;33.10;22.30;;;;;;;;;;5111043;28;20745;-76
2022/12/12 04:58:58;;;;;;;31.10;21.67;;;;;;;;;;5114833;28;20458;-77
2022/12/12 05:01:29;;;;;;;32.50;22.03;;;;;;;;;;5112133;28;20434;-76
2022/12/12 05:03:57;;;;;;;31.77;21.80;;;;;;;;;;5111288;28;20458;-76
2022/12/12 05:06:28;;;;;;;32.00;22.10;;;;;;;;;;5111517;28;20458;-75
2022/12/12 05:08:56;;;;;;;28.93;22.30;;;;;;;;;;5112275;28;20438;-76
2022/12/12 05:11:24;;;;;;;34.10;22.73;;;;;;;;;;5111793;28;20443;-76
2022/12/12 05:13:52;;;;;;;34.33;22.10;;;;;;;;;;5110257;28;21224;-76
2022/12/12 05:16:21;;;;;;;34.00;22.70;;;;;;;;;;5110779;28;20463;-77
2022/12/12 05:18:48;;;;;;;35.27;23.00;;;;;;;;;;5112592;28;20439;-76
2022/12/12 05:21:15;;;;;;;32.40;22.00;;;;;;;;;;5116097;28;20443;-75
2022/12/12 05:23:42;;;;;;;34.57;22.60;;;;;;;;;;5090917;28;20474;-76
2022/12/12 05:26:11;;;;;;;34.03;23.70;;;;;;;;;;5097628;28;20467;-76
2022/12/12 05:28:38;;;;;;;31.13;22.47;;;;;;;;;;5101213;28;20452;-76
2022/12/12 05:31:07;;;;;;;34.40;22.73;;;;;;;;;;5100029;28;20918;-76
2022/12/12 05:33:34;;;;;;;36.07;24.63;;;;;;;;;;5098484;28;20444;-77
2022/12/12 05:36:01;;;;;;;34.80;23.77;;;;;;;;;;5099165;28;20494;-76
2022/12/12 05:38:28;;;;;;;35.37;24.30;;;;;;;;;;5099379;28;20452;-77
2022/12/12 05:40:55;;;;;;;36.90;24.70;;;;;;;;;;5097576;28;20443;-76
2022/12/12 05:43:22;;;;;;;35.70;24.03;;;;;;;;;;5093431;28;21094;-76
2022/12/12 05:45:49;;;;;;;39.50;26.20;;;;;;;;;;5090902;28;20468;-78
2022/12/12 05:48:18;;;;;;;33.30;24.00;;;;;;;;;;5090576;28;20448;-77
2022/12/12 05:50:45;;;;;;;32.87;23.97;;;;;;;;;;5091105;28;20817;-76
2022/12/12 05:53:12;;;;;;;33.87;22.93;;;;;;;;;;5090037;28;20435;-77
2022/12/12 05:55:39;;;;;;;34.20;23.83;;;;;;;;;;5090658;28;21002;-76
2022/12/12 05:58:07;;;;;;;30.20;22.60;;;;;;;;;;5093651;28;20448;-76
2022/12/12 06:00:34;;;;;;;33.07;23.33;;;;;;;;;;5089837;28;20451;-76
2022/12/12 06:03:01;;;;;;;34.50;24.53;;;;;;;;;;5083381;28;20972;-77
2022/12/12 06:05:31;;;;;;;35.60;25.60;;;;;;;;;;5098181;28;20505;-78
2022/12/12 06:07:58;;;;;;;36.40;24.60;;;;;;;;;;5098223;28;20451;-77
2022/12/12 06:10:26;;;;;;;36.33;24.80;;;;;;;;;;5092561;28;20444;-78
2022/12/12 06:12:53;;;;;;;34.70;24.27;;;;;;;;;;5093058;28;20833;-76
2022/12/12 06:15:20;;;;;;;35.00;25.60;;;;;;;;;;5098595;28;20488;-77
2022/12/12 06:17:50;;;;;;;32.27;23.80;;;;;;;;;;5096121;28;20440;-77
2022/12/12 06:20:17;;;;;;;33.53;22.83;;;;;;;;;;5092412;28;20479;-77
2022/12/12 06:22:45;;;;;;;33.47;22.80;;;;;;;;;;5097453;28;20435;-78
2022/12/12 06:25:13;;;;;;;35.80;25.10;;;;;;;;;;5095921;28;20435;-77
2022/12/12 06:27:40;;;;;;;36.30;25.33;;;;;;;;;;5091895;28;20822;-77
2022/12/12 06:30:07;;;;;;;40.90;26.70;;;;;;;;;;5096722;28;20463;-77
2022/12/12 06:32:35;;;;;;;43.00;26.47;;;;;;;;;;5095242;28;20444;-78
2022/12/12 06:35:02;;;;;;;38.53;25.37;;;;;;;;;;5091909;28;20479;-77
2022/12/12 06:37:29;;;;;;;35.33;24.60;;;;;;;;;;5095514;28;20641;-77
2022/12/12 06:39:57;;;;;;;35.73;23.53;;;;;;;;;;5091695;28;20450;-76
2022/12/12 06:42:24;;;;;;;33.93;23.77;;;;;;;;;;5091566;28;20435;-77
2022/12/12 06:44:52;;;;;;;37.40;24.40;;;;;;;;;;5097026;28;21087;-76
2022/12/12 06:47:19;;;;;;;32.53;23.40;;;;;;;;;;5092840;28;20470;-77
2022/12/12 06:49:46;;;;;;;33.57;23.80;;;;;;;;;;5092330;28;20439;-76
2022/12/12 06:52:13;;;;;;;35.90;23.33;;;;;;;;;;5096225;28;20459;-78
2022/12/12 06:54:40;;;;;;;45.37;26.27;;;;;;;;;;5080090;28;20479;-76
2022/12/12 06:57:08;;;;;;;36.73;25.57;;;;;;;;;;5091676;28;20460;-77
2022/12/12 06:59:35;;;;;;;35.50;24.30;;;;;;;;;;5095808;28;20451;-76
2022/12/12 07:02:02;;;;;;;35.10;24.50;;;;;;;;;;5098698;28;20444;-77
2022/12/12 07:04:29;;;;;;;37.77;25.83;;;;;;;;;;5099760;28;20818;-76
2022/12/12 07:06:57;;;;;;;34.67;25.20;;;;;;;;;;5100173;28;20471;-78
2022/12/12 07:09:24;;;;;;;36.90;25.63;;;;;;;;;;5096480;28;20456;-76
2022/12/12 07:11:51;;;;;;;39.93;24.30;;;;;;;;;;5094304;28;20830;-77
2022/12/12 07:14:19;;;;;;;36.40;24.30;;;;;;;;;;5092441;28;20440;-77
2022/12/12 07:16:46;;;;;;;37.47;24.50;;;;;;;;;;5095176;28;20487;-76
2022/12/12 07:19:13;;;;;;;32.30;23.70;;;;;;;;;;5097076;28;21113;-76
2022/12/12 07:21:40;;;;;;;37.50;24.70;;;;;;;;;;5091445;28;20447;-77
2022/12/12 07:24:08;;;;;;;35.10;24.67;;;;;;;;;;5094907;28;20446;-76
2022/12/12 07:26:35;;;;;;;38.77;25.57;;;;;;;;;;5091862;28;20554;-77
2022/12/12 07:29:04;;;;;;;35.10;24.80;;;;;;;;;;5091021;28;20443;-78
2022/12/12 07:31:32;;;;;;;34.33;25.27;;;;;;;;;;5091483;28;20535;-76
2022/12/12 07:33:59;;;;;;;37.70;25.77;;;;;;;;;;5090564;28;20479;-77
2022/12/12 07:36:26;;;;;;;35.20;24.93;;;;;;;;;;5090632;28;20882;-76
2022/12/12 07:38:53;;;;;;;32.13;23.33;;;;;;;;;;5090477;28;20443;-76
2022/12/12 07:41:20;;;;;;;31.43;22.57;;;;;;;;;;5091810;28;20454;-76
2022/12/12 07:43:48;;;;;;;39.23;23.87;;;;;;;;;;5091321;28;20451;-76
2022/12/12 07:46:16;;;;;;;35.40;24.87;;;;;;;;;;5090783;28;20471;-77
2022/12/12 07:48:44;;;;;;;34.80;25.77;;;;;;;;;;5091706;28;20436;-76
2022/12/12 07:51:11;;;;;;;37.93;25.90;;;;;;;;;;5091193;28;20436;-76
2022/12/12 07:53:38;;;;;;;30.83;21.97;;;;;;;;;;5090823;28;20864;-77
2022/12/12 07:56:06;;;;;;;33.80;24.03;;;;;;;;;;5091359;28;20510;-77
2022/12/12 07:58:34;;;;;;;36.33;25.27;;;;;;;;;;5092940;28;20450;-77
2022/12/12 08:01:01;;;;;;;38.73;25.67;;;;;;;;;;5091104;28;20455;-77
2022/12/12 08:03:28;;;;;;;38.50;25.33;;;;;;;;;;5092774;28;20447;-76
2022/12/12 08:05:56;;;;;;;37.70;25.77;;;;;;;;;;5095327;28;20467;-76
2022/12/12 08:08:23;;;;;;;38.07;25.20;;;;;;;;;;5095437;28;20447;-78
2022/12/12 08:10:51;;;;;;;37.03;25.47;;;;;;;;;;5094737;28;20439;-77
2022/12/12 08:13:18;;;;;;;40.77;24.67;;;;;;;;;;5093246;28;20455;-76
2022/12/12 08:15:45;;;;;;;34.07;25.40;;;;;;;;;;5076803;28;20485;-76
2022/12/12 08:18:12;;;;;;;35.97;25.43;;;;;;;;;;5091554;28;20514;-77
2022/12/12 08:20:39;;;;;;;31.83;22.03;;;;;;;;;;5095861;28;20432;-77
2022/12/12 08:23:08;;;;;;;36.40;25.10;;;;;;;;;;5096502;28;20432;-76
2022/12/12 08:25:36;;;;;;;33.37;22.97;;;;;;;;;;5095349;28;20447;-77
2022/12/12 08:28:03;;;;;;;38.77;23.47;;;;;;;;;;5096866;28;20973;-77
2022/12/12 08:30:30;;;;;;;34.63;23.83;;;;;;;;;;5094653;28;20443;-78
2022/12/12 08:32:57;;;;;;;32.33;23.13;;;;;;;;;;5094776;28;20435;-77
2022/12/12 08:35:24;;;;;;;37.47;24.23;;;;;;;;;;5094986;28;20479;-77
2022/12/12 08:37:51;;;;;;;35.73;24.43;;;;;;;;;;5094882;28;20446;-78
2022/12/12 08:40:20;;;;;;;36.50;23.93;;;;;;;;;;5095052;28;20455;-77
2022/12/12 08:42:47;;;;;;;40.97;25.30;;;;;;;;;;5093955;28;20446;-76
2022/12/12 08:45:14;;;;;;;33.00;24.10;;;;;;;;;;5094224;28;20439;-76
2022/12/12 08:47:41;;;;;;;34.53;25.00;;;;;;;;;;5094656;28;20551;-77
2022/12/12 08:50:08;;;;;;;32.37;23.53;;;;;;;;;;5103371;28;20439;-77
2022/12/12 08:52:35;;;;;;;32.10;24.30;;;;;;;;;;5107826;28;20435;-77
2022/12/12 08:55:02;;;;;;;33.47;22.07;;;;;;;;;;5103594;28;20450;-76
2022/12/12 08:57:31;;;;;;;32.33;22.43;;;;;;;;;;5105230;28;20542;-77
2022/12/12 08:59:58;;;;;;;39.00;24.13;;;;;;;;;;5097418;28;20456;-77
2022/12/12 09:02:25;;;;;;;29.70;22.60;;;;;;;;;;5085885;28;20444;-78
2022/12/12 09:04:52;;;;;;;33.13;23.30;;;;;;;;;;5094871;28;20443;-76
2022/12/12 09:07:19;;;;;;;35.40;24.90;;;;;;;;;;5092672;28;21064;-77
2022/12/12 09:09:46;;;;;;;30.60;23.00;;;;;;;;;;5093424;28;20534;-76
2022/12/12 09:12:14;;;;;;;34.53;22.73;;;;;;;;;;5093143;28;20916;-78
2022/12/12 09:14:43;;;;;;;36.37;22.60;;;;;;;;;;5094622;28;20562;-77
2022/12/12 09:17:10;;;;;;;29.87;21.20;;;;;;;;;;5093093;28;20578;-76
2022/12/12 09:19:37;;;;;;;31.30;22.90;;;;;;;;;;5091231;28;20435;-76
2022/12/12 09:22:04;;;;;;;30.60;21.20;;;;;;;;;;5094052;28;20444;-77
2022/12/12 09:24:31;;;;;;;27.30;20.00;;;;;;;;;;5093695;28;20447;-76
2022/12/12 09:26:58;;;;;;;29.07;21.50;;;;;;;;;;5094301;28;20460;-78
2022/12/12 09:29:26;;;;;;;30.20;22.10;;;;;;;;;;5093838;28;20537;-78
2022/12/12 09:31:54;;;;;;;33.93;22.60;;;;;;;;;;5093809;28;20474;-79
2022/12/12 09:34:21;;;;;;;31.87;23.20;;;;;;;;;;5092952;28;20443;-77
2022/12/12 09:36:48;;;;;;;28.37;21.07;;;;;;;;;;5093355;28;20482;-76
2022/12/12 09:39:15;;;;;;;32.63;22.63;;;;;;;;;;5094197;28;20451;-76
2022/12/12 09:41:43;;;;;;;30.00;20.10;;;;;;;;;;5093458;28;20440;-76
2022/12/12 09:44:11;;;;;;;26.37;20.97;;;;;;;;;;5093272;28;20443;-76
2022/12/12 09:46:40;;;;;;;27.57;20.50;;;;;;;;;;5087809;28;20459;-78
2022/12/12 09:49:22;;;;;;;26.20;20.03;;;;;;;;;;5090906;28;21345;-76
2022/12/12 09:51:51;;;;;;;31.20;20.23;;;;;;;;;;5072265;28;20424;-77
2022/12/12 09:54:19;;;;;;;27.07;19.87;;;;;;;;;;5077143;28;20885;-77
2022/12/12 09:56:52;;;;;;;28.43;20.87;;;;;;;;;;5084502;28;20490;-76
2022/12/12 09:59:22;;;;;;;25.13;18.90;;;;;;;;;;5092553;28;20455;-78
2022/12/12 10:01:55;;;;;;;25.50;19.43;;;;;;;;;;5091660;28;20443;-78
2022/12/12 10:04:28;;;;;;;25.50;20.20;;;;;;;;;;5091508;28;20443;-77
2022/12/12 10:07:00;;;;;;;33.00;22.50;;;;;;;;;;5092057;28;20456;-78
2022/12/12 10:09:42;;;;;;;27.73;20.27;;;;;;;;;;5092228;28;20453;-77
2022/12/12 10:12:13;;;;;;;28.90;20.77;;;;;;;;;;5091670;28;20625;-77
2022/12/12 10:14:41;;;;;;;29.10;20.30;;;;;;;;;;5091766;28;20431;-77
2022/12/12 10:17:12;;;;;;;29.57;21.90;;;;;;;;;;5091803;28;20848;-76
2022/12/12 10:19:46;;;;;;;28.97;21.13;;;;;;;;;;5079604;28;20441;-77
2022/12/12 10:22:15;;;;;;;27.33;21.53;;;;;;;;;;5083139;28;20483;-77
2022/12/12 10:24:45;;;;;;;30.37;20.27;;;;;;;;;;5090809;28;20938;-77
2022/12/12 10:27:13;;;;;;;26.33;20.50;;;;;;;;;;5091816;28;20540;-77
2022/12/12 10:29:42;;;;;;;32.63;20.47;;;;;;;;;;5090176;28;20443;-77
2022/12/12 10:32:13;;;;;;;25.43;19.60;;;;;;;;;;5091673;28;20443;-77
2022/12/12 10:34:49;;;;;;;29.50;20.47;;;;;;;;;;5092106;28;20426;-77
2022/12/12 10:37:27;;;;;;;37.03;21.10;;;;;;;;;;5095696;28;20483;-77
2022/12/12 10:39:59;;;;;;;25.80;20.43;;;;;;;;;;5092823;28;20505;-77
2022/12/12 10:42:29;;;;;;;26.20;19.00;;;;;;;;;;5093827;28;20503;-77
2022/12/12 10:45:04;;;;;;;29.33;21.10;;;;;;;;;;5093620;28;20427;-77
2022/12/12 10:47:31;;;;;;;24.70;18.73;;;;;;;;;;5093118;28;20426;-76
2022/12/12 10:50:03;;;;;;;25.40;20.03;;;;;;;;;;5092314;28;20864;-78
2022/12/12 10:52:30;;;;;;;28.93;20.73;;;;;;;;;;5094125;28;20534;-76
2022/12/12 10:54:59;;;;;;;28.70;20.00;;;;;;;;;;5093947;28;20443;-77
2022/12/12 10:57:27;;;;;;;24.93;19.83;;;;;;;;;;5092687;28;20476;-77
2022/12/12 10:59:55;;;;;;;26.60;20.70;;;;;;;;;;5094817;28;20646;-76
2022/12/12 11:02:36;;;;;;;26.47;19.80;;;;;;;;;;5101578;28;20443;-76
2022/12/12 11:05:09;;;;;;;26.47;19.30;;;;;;;;;;5106098;28;20432;-77
2022/12/12 11:07:39;;;;;;;26.13;20.00;;;;;;;;;;5101619;28;20420;-77
2022/12/12 11:10:26;;;;;;;28.97;20.07;;;;;;;;;;5113722;28;20427;-76
2022/12/12 11:12:58;;;;;;;28.87;19.40;;;;;;;;;;5117349;28;20436;-77
2022/12/12 11:15:40;;;;;;;28.70;20.63;;;;;;;;;;5115488;28;20454;-78
2022/12/12 11:18:14;;;;;;;27.47;19.70;;;;;;;;;;5111306;28;20454;-78
2022/12/12 11:20:46;;;;;;;25.93;18.03;;;;;;;;;;5107564;28;20433;-77
2022/12/12 11:23:16;;;;;;;21.20;18.07;;;;;;;;;;5101903;28;20428;-76
2022/12/12 11:25:43;;;;;;;26.83;18.90;;;;;;;;;;5087187;28;20466;-77
2022/12/12 11:28:14;;;;;;;23.20;16.83;;;;;;;;;;5073220;28;20441;-78
2022/12/12 11:30:43;;;;;;;20.37;17.23;;;;;;;;;;5071367;28;20449;-77
2022/12/12 11:33:18;;;;;;;22.67;16.70;;;;;;;;;;5071991;28;20448;-77
2022/12/12 11:35:46;;;;;;;19.80;15.27;;;;;;;;;;5088780;28;20462;-78
2022/12/12 11:38:17;;;;;;;21.37;15.47;;;;;;;;;;5090511;28;20440;-78
2022/12/12 11:40:44;;;;;;;21.27;14.60;;;;;;;;;;5090985;28;20460;-77
2022/12/12 11:43:19;;;;;;;18.47;14.20;;;;;;;;;;5090252;28;20448;-79
2022/12/12 11:45:58;;;;;;;19.07;14.33;;;;;;;;;;5090878;28;20479;-77
2022/12/12 11:48:32;;;;;;;19.40;13.83;;;;;;;;;;5091003;28;20815;-77
2022/12/12 11:51:01;;;;;;;17.07;14.00;;;;;;;;;;5090838;28;20918;-77
2022/12/12 11:53:28;;;;;;;18.20;13.33;;;;;;;;;;5091186;28;21168;-77
2022/12/12 11:56:02;;;;;;;18.20;14.53;;;;;;;;;;5089701;28;20472;-78
2022/12/12 11:58:33;;;;;;;19.13;13.67;;;;;;;;;;5093027;28;20444;-76
2022/12/12 12:01:02;;;;;;;23.53;15.00;;;;;;;;;;5091819;28;20831;-78
2022/12/12 12:03:37;;;;;;;18.93;14.73;;;;;;;;;;5089675;28;20446;-79
2022/12/12 12:06:22;;;;;;;21.57;15.80;;;;;;;;;;5090648;28;20467;-78
2022/12/12 12:08:59;;;;;;;24.40;14.20;;;;;;;;;;5088609;28;20991;-77
2022/12/12 12:11:31;;;;;;;18.73;14.33;;;;;;;;;;5090606;28;20436;-77
2022/12/12 12:14:13;;;;;;;24.57;15.30;;;;;;;;;;5090455;28;20462;-78
2022/12/12 12:16:45;;;;;;;18.53;13.87;;;;;;;;;;5092178;28;20482;-77
2022/12/12 12:19:17;;;;;;;16.47;13.37;;;;;;;;;;5092715;28;20438;-78
2022/12/12 12:21:52;;;;;;;22.77;14.63;;;;;;;;;;5092327;28;20451;-78
2022/12/12 12:24:27;;;;;;;20.03;14.30;;;;;;;;;;5089519;28;20455;-79
2022/12/12 12:27:00;;;;;;;16.53;13.90;;;;;;;;;;5075690;28;20464;-78
2022/12/12 12:29:36;;;;;;;17.53;12.83;;;;;;;;;;5072619;28;20433;-77
2022/12/12 12:32:09;;;;;;;16.87;13.30;;;;;;;;;;5092020;28;20790;-78
2022/12/12 12:34:40;;;;;;;17.80;13.60;;;;;;;;;;5091295;28;20552;-76
2022/12/12 12:37:13;;;;;;;17.83;14.13;;;;;;;;;;5092500;28;21005;-78
2022/12/12 12:39:46;;;;;;;19.77;16.53;;;;;;;;;;5091845;28;20444;-78
2022/12/12 12:42:21;;;;;;;20.20;15.17;;;;;;;;;;5091435;28;20452;-77
2022/12/12 12:44:51;;;;;;;20.93;15.13;;;;;;;;;;5091263;28;20427;-79
2022/12/12 12:47:23;;;;;;;20.20;15.37;;;;;;;;;;5090949;28;20466;-76
2022/12/12 12:49:52;;;;;;;22.07;14.93;;;;;;;;;;5093325;28;20425;-78
2022/12/12 12:52:22;;;;;;;15.37;13.27;;;;;;;;;;5095215;28;20449;-78
2022/12/12 12:54:50;;;;;;;21.03;16.70;;;;;;;;;;5073770;28;20431;-77
2022/12/12 12:57:20;;;;;;;18.17;13.97;;;;;;;;;;5090062;28;20917;-77
2022/12/12 12:59:48;;;;;;;18.63;14.70;;;;;;;;;;5095134;28;20983;-78
2022/12/12 13:02:22;;;;;;;19.53;16.77;;;;;;;;;;5096086;28;20538;-78
2022/12/12 13:04:51;;;;;;;28.70;21.30;;;;;;;;;;5094965;28;20461;-79
2022/12/12 13:07:25;;;;;;;29.13;19.87;;;;;;;;;;5096103;28;20523;-77
2022/12/12 13:09:55;;;;;;;27.03;21.00;;;;;;;;;;5095513;28;20508;-77
2022/12/12 13:12:25;;;;;;;24.27;20.13;;;;;;;;;;5095454;28;20952;-78
2022/12/12 13:14:53;;;;;;;28.23;21.70;;;;;;;;;;5096934;28;20442;-77
2022/12/12 13:17:23;;;;;;;27.93;21.97;;;;;;;;;;5106021;28;20495;-77
2022/12/12 13:19:52;;;;;;;28.67;21.93;;;;;;;;;;5106113;28;20445;-77
2022/12/12 13:22:24;;;;;;;27.93;21.73;;;;;;;;;;5105588;28;20494;-76
2022/12/12 13:24:54;;;;;;;26.83;21.60;;;;;;;;;;5103579;28;20437;-77
2022/12/12 13:27:23;;;;;;;28.57;20.80;;;;;;;;;;5104894;28;20465;-76
2022/12/12 13:29:53;;;;;;;27.57;20.43;;;;;;;;;;5101922;28;20516;-77
2022/12/12 13:32:40;;;;;;;36.07;21.20;;;;;;;;;;5096155;28;20445;-78
2022/12/12 13:35:10;;;;;;;29.13;20.60;;;;;;;;;;5094398;28;20813;-79
2022/12/12 13:37:44;;;;;;;28.13;21.00;;;;;;;;;;5093969;28;20610;-77
2022/12/12 13:40:22;;;;;;;32.93;21.90;;;;;;;;;;5082461;28;20447;-78
2022/12/12 13:42:54;;;;;;;30.50;20.90;;;;;;;;;;5084665;28;20437;-78
2022/12/12 13:45:36;;;;;;;30.97;20.90;;;;;;;;;;5093422;28;21060;-78
2022/12/12 13:48:04;;;;;;;27.70;21.00;;;;;;;;;;5093042;28;20481;-76
2022/12/12 13:50:31;;;;;;;34.10;21.63;;;;;;;;;;5092510;28;21268;-77
2022/12/12 13:53:20;;;;;;;30.80;22.23;;;;;;;;;;5092152;28;20436;-77
2022/12/12 13:55:47;;;;;;;26.80;19.87;;;;;;;;;;5091729;28;20546;-77
2022/12/12 13:58:18;;;;;;;33.07;20.07;;;;;;;;;;5093520;28;20473;-77
2022/12/12 14:00:45;;;;;;;30.20;22.07;;;;;;;;;;5094378;28;20463;-76
2022/12/12 14:03:31;;;;;;;30.73;20.97;;;;;;;;;;5092125;28;20449;-77
2022/12/12 14:06:09;;;;;;;25.80;20.93;;;;;;;;;;5088332;28;20557;-77
2022/12/12 14:08:38;;;;;;;32.60;22.20;;;;;;;;;;5082523;28;20430;-77
2022/12/12 14:11:07;;;;;;;30.77;21.80;;;;;;;;;;5094085;28;20451;-77
2022/12/12 14:13:41;;;;;;;26.93;21.67;;;;;;;;;;5116470;28;20437;-77
2022/12/12 14:16:19;;;;;;;29.23;22.37;;;;;;;;;;5095599;28;20482;-78
2022/12/12 14:19:14;;;;;;;27.60;21.73;;;;;;;;;;5096496;28;20980;-77
2022/12/12 14:21:46;;;;;;;27.30;21.47;;;;;;;;;;5053674;28;20455;-78
2022/12/12 14:24:32;;;;;;;30.03;20.70;;;;;;;;;;5097405;28;20449;-78
2022/12/12 14:27:03;;;;;;;26.80;21.37;;;;;;;;;;5089085;28;20464;-77
2022/12/12 14:32:34;;;;;;;32.67;21.33;;;;;;;;;;5092837;28;20436;-79
2022/12/12 14:35:09;;;;;;;31.70;22.70;;;;;;;;;;5098288;28;20431;-77
2022/12/12 14:37:41;;;;;;;28.73;22.40;;;;;;;;;;5092716;28;20784;-76
2022/12/12 14:40:13;;;;;;;26.40;21.90;;;;;;;;;;5093518;28;20524;-76
2022/12/12 14:42:44;;;;;;;28.90;22.67;;;;;;;;;;5093563;28;20453;-77
2022/12/12 14:45:25;;;;;;;28.00;20.93;;;;;;;;;;5107193;28;20432;-77